Port Charlotte, FL (33952)

6:20 AM EST on March 04, 2015 (GMT -0500)
Port Charlotte Arlington Ct Canal | Change Station
CLOSE
Current Station
Personal Weather Station
Location: Port Charlotte, FL
Elevation: 8 ft
Nearby Weather Stations

Elev 8 ft 26.98 °N, 82.10 °W | Updated 55 seconds ago

Fog
Fog
63.9 °F
Feels Like 63.9 °F
N
0.0
Wind Variable Wind from SE
Gusts 0.0 mph

Today
High -- | Low -- °F
--% Chance of Precip.
Yesterday
High -- | Low -- °F
Precip. -- in
6:49 AM 6:30 PM
Waxing Gibbous, 99% visible
Pressure 30.13 in
Visibility 0.5 miles
Clouds
Dew Point 63 °F
Humidity 98%
Rainfall 0.00 in
Snow Depth Not available.
UV Not available.
Pollen 9.20 out of 12
Air Quality Not available.
Flu Activity Not available.
METAR KPGD 041053Z AUTO 00000KT 1/2SM FG VV015 16/16 A3013 RMK AO2 SLP202 T01560156

More Conditions Fewer Conditions

Pressure 30.13 in
Visibility 0.5 miles
Clouds
Dew Point 63 °F
Humidity 98%
Rainfall 0.00 in
Snow Depth Not available.
UV Not available.
Pollen 9.20 out of 12
Air Quality Not available.
Flu Activity Not available.
METAR KPGD 041053Z AUTO 00000KT 1/2SM FG VV015 16/16 A3013 RMK AO2 SLP202 T01560156

More Conditions Fewer Conditions

10-Day Weather Forecast

Almanac

Astronomy

Mar. 04, 2015 Rise Set
Actual Time
Civil Twilight
Nautical Twilight
Astronomical Twilight
Moon
Length of Visible Light
Length of Day
Tomorrow will be .
, % of the Moon is Illuminated

Today's Extremes

State Highs State Lows

Community

WunderPhotos

Upload Photos

1,802,434 photos uploaded!

WunderBlogs® & News

Nearby

Air Quality

  Air Quality AQ Index Pollutant
Not available.

Snow Depth

Station Depth Elevation

Earthquake Activity

City Distance Mag. Time & Date
Minimum magnitude displayed is 2.5.

Coastal Water Temperatures

Place Temperature

Nearby Weather Stations